<?xml version="1.0" encoding="UTF-8" standalone="no" ?>
<gpx xmlns="http://www.topografix.com/GPX/1/1" xmlns:xsi="http://www.w3.org/2001/XMLSchema-instance" xsi:schemaLocation="http://www.topografix.com/GPX/1/1 http://www.topografix.com/GPX/1/1/gpx.xsd" version="1.1" creator="VisuGPX - https://www.visugpx.com">
  <metadata>
    <name>Campagnes P.S.G.</name>
  </metadata>
  <trk>
    <name><![CDATA[Campagne autour de Plogastel-Saint-Germain_1]]></name>
    <extensions>
      <line xmlns="http://www.topografix.com/GPX/gpx_style/0/2">
        <color>0000FF</color>
        <width>4</width>
      </line>
    </extensions>
    <trkseg>
      <trkpt lat="47.97986" lon="-4.27354">
        <ele>77</ele>
        <time>2026-05-08T22:36:57.000Z</time>
      </trkpt>
      <trkpt lat="47.97988" lon="-4.27375">
        <ele>74</ele>
        <time>2026-05-08T22:37:13.000Z</time>
      </trkpt>
      <trkpt lat="47.97998" lon="-4.27392">
        <ele>72</ele>
        <time>2026-05-08T22:37:30.000Z</time>
      </trkpt>
      <trkpt lat="47.98023" lon="-4.27399">
        <ele>71</ele>
        <time>2026-05-08T22:37:59.000Z</time>
      </trkpt>
      <trkpt lat="47.98049" lon="-4.27405">
        <ele>70</ele>
        <time>2026-05-08T22:38:29.000Z</time>
      </trkpt>
      <trkpt lat="47.98087" lon="-4.27382">
        <ele>72</ele>
        <time>2026-05-08T22:39:37.000Z</time>
      </trkpt>
      <trkpt lat="47.9813" lon="-4.27398">
        <ele>75</ele>
        <time>2026-05-08T22:40:59.000Z</time>
      </trkpt>
      <trkpt lat="47.98175" lon="-4.27437">
        <ele>79</ele>
        <time>2026-05-08T22:42:39.000Z</time>
      </trkpt>
      <trkpt lat="47.98252" lon="-4.27484">
        <ele>83</ele>
        <time>2026-05-08T22:44:56.000Z</time>
      </trkpt>
      <trkpt lat="47.98287" lon="-4.27497">
        <ele>86</ele>
        <time>2026-05-08T22:46:08.000Z</time>
      </trkpt>
      <trkpt lat="47.98339" lon="-4.27587">
        <ele>83</ele>
        <time>2026-05-08T22:47:40.000Z</time>
      </trkpt>
      <trkpt lat="47.98359" lon="-4.27612">
        <ele>83</ele>
        <time>2026-05-08T22:48:10.000Z</time>
      </trkpt>
      <trkpt lat="47.98391" lon="-4.2753">
        <ele>95</ele>
        <time>2026-05-08T22:51:26.000Z</time>
      </trkpt>
      <trkpt lat="47.98421" lon="-4.27477">
        <ele>102</ele>
        <time>2026-05-08T22:53:31.000Z</time>
      </trkpt>
      <trkpt lat="47.9845" lon="-4.27416">
        <ele>109</ele>
        <time>2026-05-08T22:55:41.000Z</time>
      </trkpt>
      <trkpt lat="47.98429" lon="-4.27443">
        <ele>107</ele>
        <time>2026-05-08T22:56:13.000Z</time>
      </trkpt>
      <trkpt lat="47.98398" lon="-4.27457">
        <ele>101</ele>
        <time>2026-05-08T22:56:50.000Z</time>
      </trkpt>
      <trkpt lat="47.98373" lon="-4.27455">
        <ele>98</ele>
        <time>2026-05-08T22:57:18.000Z</time>
      </trkpt>
      <trkpt lat="47.98354" lon="-4.27442">
        <ele>98</ele>
        <time>2026-05-08T22:57:42.000Z</time>
      </trkpt>
      <trkpt lat="47.98328" lon="-4.27408">
        <ele>98</ele>
        <time>2026-05-08T22:58:21.000Z</time>
      </trkpt>
      <trkpt lat="47.98305" lon="-4.27361">
        <ele>101</ele>
        <time>2026-05-08T22:59:36.000Z</time>
      </trkpt>
      <trkpt lat="47.98279" lon="-4.27285">
        <ele>105</ele>
        <time>2026-05-08T23:01:23.000Z</time>
      </trkpt>
      <trkpt lat="47.98268" lon="-4.27249">
        <ele>105</ele>
        <time>2026-05-08T23:01:54.000Z</time>
      </trkpt>
      <trkpt lat="47.98266" lon="-4.27215">
        <ele>107</ele>
        <time>2026-05-08T23:02:41.000Z</time>
      </trkpt>
      <trkpt lat="47.98257" lon="-4.27208">
        <ele>106</ele>
        <time>2026-05-08T23:02:53.000Z</time>
      </trkpt>
      <trkpt lat="47.98251" lon="-4.27188">
        <ele>106</ele>
        <time>2026-05-08T23:03:10.000Z</time>
      </trkpt>
      <trkpt lat="47.9824" lon="-4.27153">
        <ele>105</ele>
        <time>2026-05-08T23:03:39.000Z</time>
      </trkpt>
      <trkpt lat="47.98241" lon="-4.27102">
        <ele>105</ele>
        <time>2026-05-08T23:04:18.000Z</time>
      </trkpt>
      <trkpt lat="47.98269" lon="-4.27103">
        <ele>108</ele>
        <time>2026-05-08T23:05:21.000Z</time>
      </trkpt>
      <trkpt lat="47.98276" lon="-4.2707">
        <ele>109</ele>
        <time>2026-05-08T23:05:58.000Z</time>
        <extensions>
          <visugpx:TrkExtension xmlns:visugpx="https://www.visugpx.com/editgpx/">
            <visugpx:node>1</visugpx:node>
            </visugpx:TrkExtension>
        </extensions>
      </trkpt>
      <trkpt lat="47.98276" lon="-4.2707">
        <ele>109</ele>
        <time>2026-05-08T19:39:34.000Z</time>
        <extensions>
          <visugpx:TrkExtension xmlns:visugpx="https://www.visugpx.com/editgpx/">
            <visugpx:node>2</visugpx:node>
            </visugpx:TrkExtension>
        </extensions>
      </trkpt>
      <trkpt lat="47.9829" lon="-4.27047">
        <ele>109</ele>
        <time>2026-05-08T19:39:57.000Z</time>
      </trkpt>
      <trkpt lat="47.98302" lon="-4.27047">
        <ele>110</ele>
        <time>2026-05-08T19:40:21.000Z</time>
      </trkpt>
      <trkpt lat="47.98338" lon="-4.27058">
        <ele>112</ele>
        <time>2026-05-08T19:41:24.000Z</time>
      </trkpt>
      <trkpt lat="47.98376" lon="-4.27087">
        <ele>114</ele>
        <time>2026-05-08T19:42:34.000Z</time>
      </trkpt>
      <trkpt lat="47.98442" lon="-4.27113">
        <ele>113</ele>
        <time>2026-05-08T19:43:52.000Z</time>
      </trkpt>
      <trkpt lat="47.98534" lon="-4.27156">
        <ele>104</ele>
        <time>2026-05-08T19:45:43.000Z</time>
      </trkpt>
      <trkpt lat="47.98577" lon="-4.27091">
        <ele>99</ele>
        <time>2026-05-08T19:46:52.000Z</time>
      </trkpt>
      <trkpt lat="47.98586" lon="-4.27034">
        <ele>98</ele>
        <time>2026-05-08T19:47:37.000Z</time>
      </trkpt>
      <trkpt lat="47.98612" lon="-4.27006">
        <ele>99</ele>
        <time>2026-05-08T19:48:23.000Z</time>
      </trkpt>
      <trkpt lat="47.98616" lon="-4.26977">
        <ele>99</ele>
        <time>2026-05-08T19:48:46.000Z</time>
      </trkpt>
      <trkpt lat="47.98667" lon="-4.26903">
        <ele>108</ele>
        <time>2026-05-08T19:51:40.000Z</time>
      </trkpt>
      <trkpt lat="47.98715" lon="-4.26831">
        <ele>108</ele>
        <time>2026-05-08T19:52:58.000Z</time>
      </trkpt>
      <trkpt lat="47.98803" lon="-4.2688">
        <ele>110</ele>
        <time>2026-05-08T19:55:06.000Z</time>
      </trkpt>
      <trkpt lat="47.98857" lon="-4.26896">
        <ele>112</ele>
        <time>2026-05-08T19:56:30.000Z</time>
      </trkpt>
      <trkpt lat="47.98911" lon="-4.26924">
        <ele>111</ele>
        <time>2026-05-08T19:57:36.000Z</time>
      </trkpt>
      <trkpt lat="47.98931" lon="-4.2692">
        <ele>111</ele>
        <time>2026-05-08T19:57:59.000Z</time>
      </trkpt>
      <trkpt lat="47.98934" lon="-4.26851">
        <ele>115</ele>
        <time>2026-05-08T19:59:33.000Z</time>
      </trkpt>
      <trkpt lat="47.98935" lon="-4.26732">
        <ele>121</ele>
        <time>2026-05-08T20:02:06.000Z</time>
      </trkpt>
      <trkpt lat="47.98945" lon="-4.26664">
        <ele>123</ele>
        <time>2026-05-08T20:03:20.000Z</time>
      </trkpt>
      <trkpt lat="47.98944" lon="-4.2662">
        <ele>124</ele>
        <time>2026-05-08T20:04:04.000Z</time>
      </trkpt>
      <trkpt lat="47.98986" lon="-4.26531">
        <ele>126</ele>
        <time>2026-05-08T20:05:48.000Z</time>
      </trkpt>
      <trkpt lat="47.9903" lon="-4.26459">
        <ele>125</ele>
        <time>2026-05-08T20:07:03.000Z</time>
      </trkpt>
      <trkpt lat="47.99164" lon="-4.26576">
        <ele>121</ele>
        <time>2026-05-08T20:10:00.000Z</time>
      </trkpt>
      <trkpt lat="47.99189" lon="-4.26482">
        <ele>122</ele>
        <time>2026-05-08T20:11:28.000Z</time>
      </trkpt>
      <trkpt lat="47.99216" lon="-4.26387">
        <ele>122</ele>
        <time>2026-05-08T20:12:47.000Z</time>
      </trkpt>
      <trkpt lat="47.99348" lon="-4.26071">
        <ele>127</ele>
        <time>2026-05-08T20:18:24.000Z</time>
      </trkpt>
      <trkpt lat="47.9934" lon="-4.25659">
        <ele>138</ele>
        <time>2026-05-08T20:25:33.000Z</time>
      </trkpt>
      <trkpt lat="47.99348" lon="-4.25456">
        <ele>143</ele>
        <time>2026-05-08T20:29:00.000Z</time>
      </trkpt>
      <trkpt lat="47.9937" lon="-4.25341">
        <ele>144</ele>
        <time>2026-05-08T20:30:42.000Z</time>
      </trkpt>
      <trkpt lat="47.99382" lon="-4.25261">
        <ele>144</ele>
        <time>2026-05-08T20:31:45.000Z</time>
      </trkpt>
      <trkpt lat="47.99418" lon="-4.2515">
        <ele>145</ele>
        <time>2026-05-08T20:33:29.000Z</time>
      </trkpt>
      <trkpt lat="47.99465" lon="-4.24973">
        <ele>142</ele>
        <time>2026-05-08T20:35:55.000Z</time>
      </trkpt>
      <trkpt lat="47.99364" lon="-4.24928">
        <ele>141</ele>
        <time>2026-05-08T20:37:55.000Z</time>
      </trkpt>
      <trkpt lat="47.99282" lon="-4.24882">
        <ele>142</ele>
        <time>2026-05-08T20:39:45.000Z</time>
      </trkpt>
      <trkpt lat="47.9916" lon="-4.2481">
        <ele>135</ele>
        <time>2026-05-08T20:42:15.000Z</time>
      </trkpt>
      <trkpt lat="47.99105" lon="-4.2482">
        <ele>133</ele>
        <time>2026-05-08T20:43:19.000Z</time>
      </trkpt>
      <trkpt lat="47.99095" lon="-4.24824">
        <ele>133</ele>
        <time>2026-05-08T20:43:31.000Z</time>
      </trkpt>
      <trkpt lat="47.99065" lon="-4.24856">
        <ele>133</ele>
        <time>2026-05-08T20:44:14.000Z</time>
      </trkpt>
      <trkpt lat="47.99055" lon="-4.24835">
        <ele>133</ele>
        <time>2026-05-08T20:44:34.000Z</time>
      </trkpt>
      <trkpt lat="47.99054" lon="-4.24792">
        <ele>136</ele>
        <time>2026-05-08T20:45:38.000Z</time>
      </trkpt>
      <trkpt lat="47.99021" lon="-4.24749">
        <ele>141</ele>
        <time>2026-05-08T20:47:20.000Z</time>
      </trkpt>
      <trkpt lat="47.98977" lon="-4.24741">
        <ele>141</ele>
        <time>2026-05-08T20:48:11.000Z</time>
      </trkpt>
      <trkpt lat="47.98944" lon="-4.24725">
        <ele>139</ele>
        <time>2026-05-08T20:48:51.000Z</time>
      </trkpt>
      <trkpt lat="47.98942" lon="-4.24778">
        <ele>137</ele>
        <time>2026-05-08T20:49:32.000Z</time>
      </trkpt>
      <trkpt lat="47.98912" lon="-4.24808">
        <ele>133</ele>
        <time>2026-05-08T20:50:14.000Z</time>
      </trkpt>
      <trkpt lat="47.98871" lon="-4.24794">
        <ele>131</ele>
        <time>2026-05-08T20:51:02.000Z</time>
      </trkpt>
      <trkpt lat="47.98818" lon="-4.24739">
        <ele>125</ele>
        <time>2026-05-08T20:52:15.000Z</time>
      </trkpt>
      <trkpt lat="47.98802" lon="-4.24686">
        <ele>123</ele>
        <time>2026-05-08T20:52:59.000Z</time>
      </trkpt>
      <trkpt lat="47.98774" lon="-4.24595">
        <ele>115</ele>
        <time>2026-05-08T20:54:17.000Z</time>
      </trkpt>
      <trkpt lat="47.98754" lon="-4.24634">
        <ele>113</ele>
        <time>2026-05-08T20:54:55.000Z</time>
      </trkpt>
      <trkpt lat="47.98714" lon="-4.2474">
        <ele>105</ele>
        <time>2026-05-08T20:56:28.000Z</time>
      </trkpt>
      <trkpt lat="47.98645" lon="-4.24918">
        <ele>94</ele>
        <time>2026-05-08T20:59:06.000Z</time>
      </trkpt>
      <trkpt lat="47.98468" lon="-4.25359">
        <ele>90</ele>
        <time>2026-05-08T21:05:40.000Z</time>
      </trkpt>
      <trkpt lat="47.98321" lon="-4.25739">
        <ele>84</ele>
        <time>2026-05-08T21:11:16.000Z</time>
      </trkpt>
      <trkpt lat="47.98271" lon="-4.25657">
        <ele>88</ele>
        <time>2026-05-08T21:13:22.000Z</time>
      </trkpt>
      <trkpt lat="47.9816" lon="-4.25515">
        <ele>86</ele>
        <time>2026-05-08T21:16:09.000Z</time>
      </trkpt>
      <trkpt lat="47.9816" lon="-4.25434">
        <ele>84</ele>
        <time>2026-05-08T21:17:12.000Z</time>
      </trkpt>
      <trkpt lat="47.9816" lon="-4.25517">
        <ele>86</ele>
        <time>2026-05-08T21:18:37.000Z</time>
      </trkpt>
      <trkpt lat="47.98162" lon="-4.25534">
        <ele>86</ele>
        <time>2026-05-08T21:18:50.000Z</time>
      </trkpt>
      <trkpt lat="47.98188" lon="-4.25566">
        <ele>88</ele>
        <time>2026-05-08T21:19:49.000Z</time>
      </trkpt>
      <trkpt lat="47.98221" lon="-4.25609">
        <ele>90</ele>
        <time>2026-05-08T21:20:59.000Z</time>
      </trkpt>
      <trkpt lat="47.98276" lon="-4.25697">
        <ele>89</ele>
        <time>2026-05-08T21:22:32.000Z</time>
      </trkpt>
      <trkpt lat="47.98305" lon="-4.25747">
        <ele>87</ele>
        <time>2026-05-08T21:23:23.000Z</time>
      </trkpt>
      <trkpt lat="47.98334" lon="-4.25793">
        <ele>84</ele>
        <time>2026-05-08T21:24:11.000Z</time>
      </trkpt>
      <trkpt lat="47.98395" lon="-4.25916">
        <ele>77</ele>
        <time>2026-05-08T21:26:08.000Z</time>
      </trkpt>
      <trkpt lat="47.98402" lon="-4.2597">
        <ele>74</ele>
        <time>2026-05-08T21:26:50.000Z</time>
      </trkpt>
      <trkpt lat="47.98384" lon="-4.26021">
        <ele>72</ele>
        <time>2026-05-08T21:27:34.000Z</time>
      </trkpt>
      <trkpt lat="47.98359" lon="-4.26089">
        <ele>71</ele>
        <time>2026-05-08T21:28:33.000Z</time>
      </trkpt>
      <trkpt lat="47.98326" lon="-4.26144">
        <ele>69</ele>
        <time>2026-05-08T21:29:29.000Z</time>
      </trkpt>
      <trkpt lat="47.98284" lon="-4.26163">
        <ele>67</ele>
        <time>2026-05-08T21:30:19.000Z</time>
      </trkpt>
      <trkpt lat="47.98285" lon="-4.26251">
        <ele>66</ele>
        <time>2026-05-08T21:31:26.000Z</time>
      </trkpt>
      <trkpt lat="47.98288" lon="-4.26301">
        <ele>66</ele>
        <time>2026-05-08T21:32:05.000Z</time>
      </trkpt>
      <trkpt lat="47.98251" lon="-4.26339">
        <ele>67</ele>
        <time>2026-05-08T21:33:07.000Z</time>
      </trkpt>
      <trkpt lat="47.98247" lon="-4.26455">
        <ele>69</ele>
        <time>2026-05-08T21:34:57.000Z</time>
      </trkpt>
      <trkpt lat="47.98226" lon="-4.26669">
        <ele>81</ele>
        <time>2026-05-08T21:39:46.000Z</time>
      </trkpt>
      <trkpt lat="47.98197" lon="-4.26657">
        <ele>81</ele>
        <time>2026-05-08T21:40:20.000Z</time>
      </trkpt>
      <trkpt lat="47.98159" lon="-4.26618">
        <ele>82</ele>
        <time>2026-05-08T21:41:24.000Z</time>
      </trkpt>
      <trkpt lat="47.98122" lon="-4.26614">
        <ele>84</ele>
        <time>2026-05-08T21:42:27.000Z</time>
      </trkpt>
      <trkpt lat="47.98104" lon="-4.26633">
        <ele>86</ele>
        <time>2026-05-08T21:43:13.000Z</time>
      </trkpt>
      <trkpt lat="47.98083" lon="-4.26674">
        <ele>88</ele>
        <time>2026-05-08T21:44:13.000Z</time>
      </trkpt>
      <trkpt lat="47.98069" lon="-4.26647">
        <ele>88</ele>
        <time>2026-05-08T21:44:39.000Z</time>
      </trkpt>
      <trkpt lat="47.98011" lon="-4.26599">
        <ele>87</ele>
        <time>2026-05-08T21:45:55.000Z</time>
      </trkpt>
      <trkpt lat="47.97939" lon="-4.26537">
        <ele>88</ele>
        <time>2026-05-08T21:47:40.000Z</time>
      </trkpt>
      <trkpt lat="47.97889" lon="-4.26706">
        <ele>95</ele>
        <time>2026-05-08T21:51:14.000Z</time>
      </trkpt>
      <trkpt lat="47.97868" lon="-4.26678">
        <ele>96</ele>
        <time>2026-05-08T21:51:57.000Z</time>
      </trkpt>
      <trkpt lat="47.97845" lon="-4.26662">
        <ele>95</ele>
        <time>2026-05-08T21:52:27.000Z</time>
      </trkpt>
      <trkpt lat="47.97817" lon="-4.26621">
        <ele>94</ele>
        <time>2026-05-08T21:53:12.000Z</time>
      </trkpt>
      <trkpt lat="47.97788" lon="-4.26579">
        <ele>93</ele>
        <time>2026-05-08T21:53:58.000Z</time>
      </trkpt>
      <trkpt lat="47.97762" lon="-4.2656">
        <ele>92</ele>
        <time>2026-05-08T21:54:32.000Z</time>
      </trkpt>
      <trkpt lat="47.97696" lon="-4.26552">
        <ele>87</ele>
        <time>2026-05-08T21:55:48.000Z</time>
      </trkpt>
      <trkpt lat="47.9765" lon="-4.26485">
        <ele>84</ele>
        <time>2026-05-08T21:57:01.000Z</time>
      </trkpt>
      <trkpt lat="47.97603" lon="-4.26428">
        <ele>83</ele>
        <time>2026-05-08T21:58:11.000Z</time>
      </trkpt>
      <trkpt lat="47.97571" lon="-4.26383">
        <ele>81</ele>
        <time>2026-05-08T21:59:01.000Z</time>
      </trkpt>
      <trkpt lat="47.97549" lon="-4.2633">
        <ele>81</ele>
        <time>2026-05-08T21:59:49.000Z</time>
      </trkpt>
      <trkpt lat="47.97531" lon="-4.26285">
        <ele>81</ele>
        <time>2026-05-08T22:00:29.000Z</time>
      </trkpt>
      <trkpt lat="47.97505" lon="-4.26241">
        <ele>79</ele>
        <time>2026-05-08T22:01:14.000Z</time>
      </trkpt>
      <trkpt lat="47.97415" lon="-4.26162">
        <ele>77</ele>
        <time>2026-05-08T22:03:14.000Z</time>
      </trkpt>
      <trkpt lat="47.97375" lon="-4.26073">
        <ele>71</ele>
        <time>2026-05-08T22:04:37.000Z</time>
      </trkpt>
      <trkpt lat="47.9733" lon="-4.26097">
        <ele>65</ele>
        <time>2026-05-08T22:05:31.000Z</time>
      </trkpt>
      <trkpt lat="47.97275" lon="-4.26122">
        <ele>56</ele>
        <time>2026-05-08T22:06:36.000Z</time>
      </trkpt>
      <trkpt lat="47.97281" lon="-4.26177">
        <ele>56</ele>
        <time>2026-05-08T22:07:19.000Z</time>
      </trkpt>
      <trkpt lat="47.97291" lon="-4.26217">
        <ele>57</ele>
        <time>2026-05-08T22:08:02.000Z</time>
      </trkpt>
      <trkpt lat="47.97298" lon="-4.26308">
        <ele>56</ele>
        <time>2026-05-08T22:09:13.000Z</time>
      </trkpt>
      <trkpt lat="47.97319" lon="-4.26373">
        <ele>57</ele>
        <time>2026-05-08T22:10:18.000Z</time>
      </trkpt>
      <trkpt lat="47.97344" lon="-4.26427">
        <ele>58</ele>
        <time>2026-05-08T22:11:19.000Z</time>
      </trkpt>
      <trkpt lat="47.97382" lon="-4.26462">
        <ele>59</ele>
        <time>2026-05-08T22:12:20.000Z</time>
      </trkpt>
      <trkpt lat="47.97468" lon="-4.26516">
        <ele>64</ele>
        <time>2026-05-08T22:14:58.000Z</time>
      </trkpt>
      <trkpt lat="47.97517" lon="-4.26591">
        <ele>66</ele>
        <time>2026-05-08T22:16:39.000Z</time>
      </trkpt>
      <trkpt lat="47.97573" lon="-4.26669">
        <ele>69</ele>
        <time>2026-05-08T22:18:37.000Z</time>
      </trkpt>
      <trkpt lat="47.97585" lon="-4.26804">
        <ele>67</ele>
        <time>2026-05-08T22:20:22.000Z</time>
      </trkpt>
      <trkpt lat="47.97691" lon="-4.26838">
        <ele>77</ele>
        <time>2026-05-08T22:24:08.000Z</time>
      </trkpt>
      <trkpt lat="47.97801" lon="-4.26885">
        <ele>86</ele>
        <time>2026-05-08T22:27:52.000Z</time>
      </trkpt>
      <trkpt lat="47.97842" lon="-4.269">
        <ele>88</ele>
        <time>2026-05-08T22:29:01.000Z</time>
      </trkpt>
      <trkpt lat="47.97846" lon="-4.26944">
        <ele>87</ele>
        <time>2026-05-08T22:29:36.000Z</time>
      </trkpt>
      <trkpt lat="47.97842" lon="-4.27077">
        <ele>85</ele>
        <time>2026-05-08T22:31:18.000Z</time>
      </trkpt>
      <trkpt lat="47.97871" lon="-4.27099">
        <ele>86</ele>
        <time>2026-05-08T22:32:05.000Z</time>
      </trkpt>
      <trkpt lat="47.97912" lon="-4.27115">
        <ele>86</ele>
        <time>2026-05-08T22:32:53.000Z</time>
      </trkpt>
      <trkpt lat="47.97951" lon="-4.27122">
        <ele>85</ele>
        <time>2026-05-08T22:33:38.000Z</time>
      </trkpt>
      <trkpt lat="47.97948" lon="-4.27214">
        <ele>80</ele>
        <time>2026-05-08T22:34:48.000Z</time>
      </trkpt>
      <trkpt lat="47.97952" lon="-4.27271">
        <ele>79</ele>
        <time>2026-05-08T22:35:32.000Z</time>
      </trkpt>
      <trkpt lat="47.9799" lon="-4.27319">
        <ele>79</ele>
        <time>2026-05-08T22:36:29.000Z</time>
      </trkpt>
      <trkpt lat="47.97986" lon="-4.27354">
        <ele>77</ele>
        <time>2026-05-08T22:36:57.000Z</time>
        <extensions>
          <visugpx:TrkExtension xmlns:visugpx="https://www.visugpx.com/editgpx/">
            <visugpx:node>3</visugpx:node>
            </visugpx:TrkExtension>
        </extensions>
      </trkpt>
    </trkseg>
  </trk>
</gpx>